Chacara, Brazil
Current Conditions -  °F | °C
As of 6:00 AM on Saturday 20 Dec 2014 (Local Time) from SBBQ Reporting Station
Light Rain Light Rain  
Wind Chill: 66°   Ceiling: 10000
Heat Index: 66°   Visibility: 5mi
Dew Point: 64°   Wind: 3mph
Humidity: 94%   Direction: 70°ENE
Pressure: 30.03"   Gusts: NA
Location:  21.67°S, 43.22°W
Report Text: SBBQ 200800Z 07003KT 8000 -RA FEW005 BKN100 19/18 Q1017
Loading
Personal Weather Stations






























Interactive Weather Map New forecast layout! Learn more

10-Day Weather Forecast

Advertisements
Track Severe Weather on mobile